sensor_id;sensor_type;location;lat;lon;timestamp;pressure;altitude;pressure_sealevel;temperature;humidity
50040;BME280;44598;51.606;5.912;2023-03-01T00:01:50;102700;;;0.1;79.0
50040;BME280;44598;51.606;5.912;2023-03-01T00:15:09;102700;;;-0.1;80.0
50040;BME280;44598;51.606;5.912;2023-03-01T00:28:29;102700;;;-0.2;80.4
50040;BME280;44598;51.606;5.912;2023-03-01T00:41:49;102700;;;-0.3;80.2
50040;BME280;44598;51.606;5.912;2023-03-01T00:55:09;102700;;;-0.4;81.2
50040;BME280;44598;51.606;5.912;2023-03-01T01:08:29;102700;;;-0.4;81.1
50040;BME280;44598;51.606;5.912;2023-03-01T01:21:49;102700;;;-0.6;81.9
50040;BME280;44598;51.606;5.912;2023-03-01T01:35:08;102700;;;-0.8;83.4
50040;BME280;44598;51.606;5.912;2023-03-01T01:48:28;102700;;;-0.9;83.5
50040;BME280;44598;51.606;5.912;2023-03-01T02:01:48;102700;;;-1.1;84.1
50040;BME280;44598;51.606;5.912;2023-03-01T02:15:08;102700;;;-1.2;84.2
50040;BME280;44598;51.606;5.912;2023-03-01T02:28:28;102700;;;-1.3;83.8
50040;BME280;44598;51.606;5.912;2023-03-01T02:41:47;102700;;;-1.3;84.3
50040;BME280;44598;51.606;5.912;2023-03-01T02:55:07;102700;;;-1.4;85.0
50040;BME280;44598;51.606;5.912;2023-03-01T03:08:27;102600;;;-1.5;85.3
50040;BME280;44598;51.606;5.912;2023-03-01T03:21:47;102600;;;-1.6;85.5
50040;BME280;44598;51.606;5.912;2023-03-01T03:35:07;102600;;;-1.6;85.5
50040;BME280;44598;51.606;5.912;2023-03-01T03:48:27;102600;;;-1.7;86.0
50040;BME280;44598;51.606;5.912;2023-03-01T04:28:26;102600;;;-1.9;86.9
50040;BME280;44598;51.606;5.912;2023-03-01T04:41:46;102600;;;-2.0;86.9
50040;BME280;44598;51.606;5.912;2023-03-01T04:55:06;102600;;;-2.0;87.2
50040;BME280;44598;51.606;5.912;2023-03-01T05:21:45;102600;;;-2.1;87.3
50040;BME280;44598;51.606;5.912;2023-03-01T05:35:05;102600;;;-2.1;87.2
50040;BME280;44598;51.606;5.912;2023-03-01T06:15:04;102600;;;-2.4;88.5
50040;BME280;44598;51.606;5.912;2023-03-01T06:28:24;102600;;;-2.5;88.5
50040;BME280;44598;51.606;5.912;2023-03-01T06:41:44;102600;;;-2.5;88.8
50040;BME280;44598;51.606;5.912;2023-03-01T06:55:04;102600;;;-2.5;89.1
50040;BME280;44598;51.606;5.912;2023-03-01T07:08:24;102500;;;-2.5;89.1
50040;BME280;44598;51.606;5.912;2023-03-01T07:21:43;102600;;;-2.4;88.9
50040;BME280;44598;51.606;5.912;2023-03-01T07:35:03;102600;;;-2.3;88.9
50040;BME280;44598;51.606;5.912;2023-03-01T08:01:43;102600;;;-1.7;86.8
50040;BME280;44598;51.606;5.912;2023-03-01T08:15:03;102600;;;-1.2;84.8
50040;BME280;44598;51.606;5.912;2023-03-01T08:28:22;102600;;;-0.4;81.2
50040;BME280;44598;51.606;5.912;2023-03-01T08:41:42;102600;;;0.5;76.9
50040;BME280;44598;51.606;5.912;2023-03-01T09:08:22;102600;;;2.4;69.3
50040;BME280;44598;51.606;5.912;2023-03-01T09:21:42;102500;;;3.4;64.1
50040;BME280;44598;51.606;5.912;2023-03-01T09:48:21;102500;;;5.1;60.7
50040;BME280;44598;51.606;5.912;2023-03-01T10:01:41;102500;;;5.7;58.9
50040;BME280;44598;51.606;5.912;2023-03-01T10:15:01;102500;;;6.3;58.8
50040;BME280;44598;51.606;5.912;2023-03-01T10:28:21;102500;;;6.7;57.3
50040;BME280;44598;51.606;5.912;2023-03-01T10:41:40;102500;;;7.0;55.1
50040;BME280;44598;51.606;5.912;2023-03-01T10:55:00;102500;;;7.3;54.3
50040;BME280;44598;51.606;5.912;2023-03-01T11:35:00;102400;;;8.2;51.5
50040;BME280;44598;51.606;5.912;2023-03-01T12:01:39;102400;;;9.0;49.8
50040;BME280;44598;51.606;5.912;2023-03-01T12:14:59;102400;;;9.4;51.5
50040;BME280;44598;51.606;5.912;2023-03-01T12:28:19;102400;;;9.3;50.4
50040;BME280;44598;51.606;5.912;2023-03-01T12:41:39;102400;;;9.1;52.8
50040;BME280;44598;51.606;5.912;2023-03-01T12:54:59;102400;;;8.7;54.1
50040;BME280;44598;51.606;5.912;2023-03-01T13:08:19;102300;;;8.4;52.9
50040;BME280;44598;51.606;5.912;2023-03-01T13:21:38;102300;;;8.2;53.4
50040;BME280;44598;51.606;5.912;2023-03-01T13:34:58;102300;;;8.1;53.8
50040;BME280;44598;51.606;5.912;2023-03-01T13:48:18;102300;;;8.2;54.1
50040;BME280;44598;51.606;5.912;2023-03-01T14:14:58;102200;;;8.4;51.6
50040;BME280;44598;51.606;5.912;2023-03-01T14:28:17;102200;;;8.6;49.9
50040;BME280;44598;51.606;5.912;2023-03-01T14:41:37;102200;;;9.1;46.8
50040;BME280;44598;51.606;5.912;2023-03-01T14:54:57;102200;;;9.5;43.3
50040;BME280;44598;51.606;5.912;2023-03-01T15:08:17;102200;;;10.5;41.4
50040;BME280;44598;51.606;5.912;2023-03-01T15:21:37;102200;;;11.2;41.9
50040;BME280;44598;51.606;5.912;2023-03-01T15:34:56;102200;;;11.6;41.5
50040;BME280;44598;51.606;5.912;2023-03-01T15:48:16;102200;;;11.8;40.5
50040;BME280;44598;51.606;5.912;2023-03-01T16:14:56;102100;;;11.6;44.2
50040;BME280;44598;51.606;5.912;2023-03-01T16:28:16;102100;;;11.3;47.4
50040;BME280;44598;51.606;5.912;2023-03-01T16:54:55;102100;;;10.3;47.8
50040;BME280;44598;51.606;5.912;2023-03-01T17:08:15;102100;;;9.9;51.0
50040;BME280;44598;51.606;5.912;2023-03-01T17:21:35;102100;;;9.2;55.0
50040;BME280;44598;51.606;5.912;2023-03-01T17:34:55;102100;;;8.2;57.6
50040;BME280;44598;51.606;5.912;2023-03-01T18:01:34;102100;;;6.3;61.1
50040;BME280;44598;51.606;5.912;2023-03-01T18:14:54;102100;;;5.6;61.6
50040;BME280;44598;51.606;5.912;2023-03-01T18:28:14;102100;;;5.0;62.3
50040;BME280;44598;51.606;5.912;2023-03-01T18:41:34;102100;;;4.6;63.5
50040;BME280;44598;51.606;5.912;2023-03-01T18:54:54;102100;;;4.2;64.6
50040;BME280;44598;51.606;5.912;2023-03-01T19:08:13;102100;;;3.9;66.2
50040;BME280;44598;51.606;5.912;2023-03-01T19:21:33;102100;;;3.5;66.8
50040;BME280;44598;51.606;5.912;2023-03-01T19:34:53;102100;;;3.2;68.3
50040;BME280;44598;51.606;5.912;2023-03-01T19:48:13;102100;;;3.0;69.4
50040;BME280;44598;51.606;5.912;2023-03-01T20:01:33;102100;;;2.7;70.6
50040;BME280;44598;51.606;5.912;2023-03-01T20:14:52;102100;;;2.5;71.2
50040;BME280;44598;51.606;5.912;2023-03-01T20:28:12;102100;;;2.4;72.3
50040;BME280;44598;51.606;5.912;2023-03-01T20:41:32;102100;;;2.2;73.3
50040;BME280;44598;51.606;5.912;2023-03-01T20:54:52;102100;;;2.1;73.7
50040;BME280;44598;51.606;5.912;2023-03-01T21:08:12;102100;;;2.0;73.6
50040;BME280;44598;51.606;5.912;2023-03-01T21:21:31;102100;;;1.9;74.0
50040;BME280;44598;51.606;5.912;2023-03-01T21:34:51;102100;;;1.9;74.4
50040;BME280;44598;51.606;5.912;2023-03-01T21:48:11;102100;;;1.8;74.1
50040;BME280;44598;51.606;5.912;2023-03-01T22:01:31;102100;;;1.8;74.0
50040;BME280;44598;51.606;5.912;2023-03-01T22:14:51;102100;;;1.8;74.1
50040;BME280;44598;51.606;5.912;2023-03-01T22:28:10;102100;;;1.8;74.3
50040;BME280;44598;51.606;5.912;2023-03-01T22:41:30;102100;;;1.8;74.8
50040;BME280;44598;51.606;5.912;2023-03-01T22:54:50;102100;;;1.7;75.1
50040;BME280;44598;51.606;5.912;2023-03-01T23:08:10;102100;;;1.6;75.4
50040;BME280;44598;51.606;5.912;2023-03-01T23:21:30;102100;;;1.5;75.8
